sensor_id;sensor_type;location;lat;lon;timestamp;P1;durP1;ratioP1;P2;durP2;ratioP2
8632;SDS011;4354;49.832;10.746;2022-09-21T00:01:25;4.17;;;1.93;;
8632;SDS011;4354;49.832;10.746;2022-09-21T00:03:55;3.57;;;1.80;;
8632;SDS011;4354;49.832;10.746;2022-09-21T00:06:24;2.27;;;2.07;;
8632;SDS011;4354;49.832;10.746;2022-09-21T00:08:52;4.17;;;2.03;;
8632;SDS011;4354;49.832;10.746;2022-09-21T00:11:22;2.37;;;2.10;;
8632;SDS011;4354;49.832;10.746;2022-09-21T00:13:54;6.40;;;1.77;;
8632;SDS011;4354;49.832;10.746;2022-09-21T00:16:26;4.83;;;2.20;;
8632;SDS011;4354;49.832;10.746;2022-09-21T00:18:54;2.30;;;1.80;;
8632;SDS011;4354;49.832;10.746;2022-09-21T00:21:20;2.93;;;1.90;;
8632;SDS011;4354;49.832;10.746;2022-09-21T00:23:48;2.73;;;1.97;;
8632;SDS011;4354;49.832;10.746;2022-09-21T00:26:16;1.90;;;1.70;;
8632;SDS011;4354;49.832;10.746;2022-09-21T00:28:45;2.77;;;1.83;;
8632;SDS011;4354;49.832;10.746;2022-09-21T00:31:14;2.97;;;1.60;;
8632;SDS011;4354;49.832;10.746;2022-09-21T00:33:43;3.47;;;1.50;;
8632;SDS011;4354;49.832;10.746;2022-09-21T00:36:11;5.67;;;1.63;;
8632;SDS011;4354;49.832;10.746;2022-09-21T00:38:40;1.80;;;1.60;;
8632;SDS011;4354;49.832;10.746;2022-09-21T00:41:11;1.83;;;1.70;;
8632;SDS011;4354;49.832;10.746;2022-09-21T00:43:41;3.67;;;2.00;;
8632;SDS011;4354;49.832;10.746;2022-09-21T00:46:14;2.50;;;1.83;;
8632;SDS011;4354;49.832;10.746;2022-09-21T00:48:52;1.87;;;1.60;;
8632;SDS011;4354;49.832;10.746;2022-09-21T00:51:19;2.07;;;1.40;;
8632;SDS011;4354;49.832;10.746;2022-09-21T00:53:47;1.73;;;1.40;;
8632;SDS011;4354;49.832;10.746;2022-09-21T00:56:19;2.40;;;2.00;;
8632;SDS011;4354;49.832;10.746;2022-09-21T00:58:48;3.83;;;1.80;;
8632;SDS011;4354;49.832;10.746;2022-09-21T01:01:17;2.53;;;1.70;;
8632;SDS011;4354;49.832;10.746;2022-09-21T01:03:45;5.73;;;1.60;;
8632;SDS011;4354;49.832;10.746;2022-09-21T01:06:14;2.10;;;1.90;;
8632;SDS011;4354;49.832;10.746;2022-09-21T01:08:43;2.30;;;1.70;;
8632;SDS011;4354;49.832;10.746;2022-09-21T01:22:12;3.17;;;1.73;;
8632;SDS011;4354;49.832;10.746;2022-09-21T01:30:04;3.97;;;1.60;;
8632;SDS011;4354;49.832;10.746;2022-09-21T01:35:32;2.90;;;1.60;;
8632;SDS011;4354;49.832;10.746;2022-09-21T01:38:05;3.00;;;1.50;;
8632;SDS011;4354;49.832;10.746;2022-09-21T01:40:40;2.37;;;1.70;;
8632;SDS011;4354;49.832;10.746;2022-09-21T01:43:12;2.70;;;1.60;;
8632;SDS011;4354;49.832;10.746;2022-09-21T01:45:44;2.93;;;1.53;;
8632;SDS011;4354;49.832;10.746;2022-09-21T01:48:14;4.97;;;1.67;;
8632;SDS011;4354;49.832;10.746;2022-09-21T01:50:44;2.07;;;1.60;;
8632;SDS011;4354;49.832;10.746;2022-09-21T01:53:37;3.20;;;1.70;;
8632;SDS011;4354;49.832;10.746;2022-09-21T01:56:16;2.20;;;1.47;;
8632;SDS011;4354;49.832;10.746;2022-09-21T02:01:57;1.20;;;1.10;;
8632;SDS011;4354;49.832;10.746;2022-09-21T02:04:29;1.87;;;1.43;;
8632;SDS011;4354;49.832;10.746;2022-09-21T02:06:56;3.90;;;1.57;;
8632;SDS011;4354;49.832;10.746;2022-09-21T02:09:23;3.70;;;1.77;;
8632;SDS011;4354;49.832;10.746;2022-09-21T02:11:50;6.60;;;1.93;;
8632;SDS011;4354;49.832;10.746;2022-09-21T02:14:19;9.63;;;1.90;;
8632;SDS011;4354;49.832;10.746;2022-09-21T02:16:57;9.00;;;2.50;;
8632;SDS011;4354;49.832;10.746;2022-09-21T02:25:27;24.83;;;3.00;;
8632;SDS011;4354;49.832;10.746;2022-09-21T02:28:05;9.00;;;2.83;;
8632;SDS011;4354;49.832;10.746;2022-09-21T02:30:37;8.90;;;2.90;;
8632;SDS011;4354;49.832;10.746;2022-09-21T02:39:02;16.23;;;3.27;;
8632;SDS011;4354;49.832;10.746;2022-09-21T02:46:47;7.23;;;2.93;;
8632;SDS011;4354;49.832;10.746;2022-09-21T02:49:24;27.33;;;4.00;;
8632;SDS011;4354;49.832;10.746;2022-09-21T02:51:57;9.03;;;3.20;;
8632;SDS011;4354;49.832;10.746;2022-09-21T02:54:29;25.00;;;3.70;;
8632;SDS011;4354;49.832;10.746;2022-09-21T02:56:58;28.27;;;4.30;;
8632;SDS011;4354;49.832;10.746;2022-09-21T02:59:26;2.70;;;2.50;;
8632;SDS011;4354;49.832;10.746;2022-09-21T03:01:53;2.90;;;2.60;;
8632;SDS011;4354;49.832;10.746;2022-09-21T03:04:23;5.50;;;2.83;;
8632;SDS011;4354;49.832;10.746;2022-09-21T03:06:53;4.60;;;2.70;;
8632;SDS011;4354;49.832;10.746;2022-09-21T03:09:20;2.60;;;2.23;;
8632;SDS011;4354;49.832;10.746;2022-09-21T03:11:52;11.77;;;2.73;;
8632;SDS011;4354;49.832;10.746;2022-09-21T03:14:19;57.87;;;4.47;;
8632;SDS011;4354;49.832;10.746;2022-09-21T03:16:48;9.70;;;2.97;;
8632;SDS011;4354;49.832;10.746;2022-09-21T03:19:14;8.63;;;3.50;;
8632;SDS011;4354;49.832;10.746;2022-09-21T03:21:41;5.80;;;2.97;;
8632;SDS011;4354;49.832;10.746;2022-09-21T03:24:10;16.17;;;4.00;;
8632;SDS011;4354;49.832;10.746;2022-09-21T03:26:37;6.87;;;3.67;;
8632;SDS011;4354;49.832;10.746;2022-09-21T03:29:04;9.00;;;3.37;;
8632;SDS011;4354;49.832;10.746;2022-09-21T03:31:31;19.33;;;3.77;;
8632;SDS011;4354;49.832;10.746;2022-09-21T03:33:58;4.77;;;2.87;;
8632;SDS011;4354;49.832;10.746;2022-09-21T03:36:25;10.30;;;3.80;;
8632;SDS011;4354;49.832;10.746;2022-09-21T03:38:52;37.53;;;4.60;;
8632;SDS011;4354;49.832;10.746;2022-09-21T03:41:18;4.77;;;3.17;;
8632;SDS011;4354;49.832;10.746;2022-09-21T03:43:45;3.30;;;2.77;;
8632;SDS011;4354;49.832;10.746;2022-09-21T03:46:12;32.40;;;3.80;;
8632;SDS011;4354;49.832;10.746;2022-09-21T03:48:39;14.87;;;3.33;;
8632;SDS011;4354;49.832;10.746;2022-09-21T03:51:07;11.97;;;3.83;;
8632;SDS011;4354;49.832;10.746;2022-09-21T03:53:34;7.40;;;3.97;;
8632;SDS011;4354;49.832;10.746;2022-09-21T03:56:01;10.87;;;4.27;;
8632;SDS011;4354;49.832;10.746;2022-09-21T03:58:28;42.00;;;4.30;;
8632;SDS011;4354;49.832;10.746;2022-09-21T04:00:59;7.33;;;3.93;;
8632;SDS011;4354;49.832;10.746;2022-09-21T04:03:27;14.23;;;5.20;;
8632;SDS011;4354;49.832;10.746;2022-09-21T04:05:55;24.33;;;5.23;;
8632;SDS011;4354;49.832;10.746;2022-09-21T04:08:25;7.77;;;3.90;;
8632;SDS011;4354;49.832;10.746;2022-09-21T04:10:52;4.97;;;4.00;;
8632;SDS011;4354;49.832;10.746;2022-09-21T04:13:19;16.23;;;5.00;;
8632;SDS011;4354;49.832;10.746;2022-09-21T04:15:45;20.37;;;4.77;;
8632;SDS011;4354;49.832;10.746;2022-09-21T04:18:12;44.67;;;4.83;;
8632;SDS011;4354;49.832;10.746;2022-09-21T04:20:39;34.63;;;4.80;;
8632;SDS011;4354;49.832;10.746;2022-09-21T04:23:06;47.63;;;5.57;;
8632;SDS011;4354;49.832;10.746;2022-09-21T04:25:33;88.37;;;7.63;;
8632;SDS011;4354;49.832;10.746;2022-09-21T04:28:01;51.77;;;5.43;;
8632;SDS011;4354;49.832;10.746;2022-09-21T04:30:28;40.00;;;5.50;;
8632;SDS011;4354;49.832;10.746;2022-09-21T04:33:00;9.97;;;4.67;;
8632;SDS011;4354;49.832;10.746;2022-09-21T04:35:27;11.37;;;4.83;;
8632;SDS011;4354;49.832;10.746;2022-09-21T04:37:54;33.47;;;5.50;;
8632;SDS011;4354;49.832;10.746;2022-09-21T04:40:21;43.23;;;5.90;;
8632;SDS011;4354;49.832;10.746;2022-09-21T04:42:50;4.70;;;4.17;;
8632;SDS011;4354;49.832;10.746;2022-09-21T04:45:19;4.70;;;4.27;;
8632;SDS011;4354;49.832;10.746;2022-09-21T04:47:46;8.83;;;5.30;;
8632;SDS011;4354;49.832;10.746;2022-09-21T04:50:13;5.00;;;4.50;;
8632;SDS011;4354;49.832;10.746;2022-09-21T04:52:41;12.87;;;5.03;;
8632;SDS011;4354;49.832;10.746;2022-09-21T04:55:08;25.90;;;5.60;;
8632;SDS011;4354;49.832;10.746;2022-09-21T04:57:34;15.50;;;5.73;;
8632;SDS011;4354;49.832;10.746;2022-09-21T05:00:03;14.97;;;5.67;;
8632;SDS011;4354;49.832;10.746;2022-09-21T05:02:30;8.17;;;5.27;;
8632;SDS011;4354;49.832;10.746;2022-09-21T05:04:57;21.17;;;5.80;;
8632;SDS011;4354;49.832;10.746;2022-09-21T05:07:24;9.07;;;4.80;;
8632;SDS011;4354;49.832;10.746;2022-09-21T05:09:51;39.00;;;6.40;;
8632;SDS011;4354;49.832;10.746;2022-09-21T05:12:30;74.53;;;6.77;;
8632;SDS011;4354;49.832;10.746;2022-09-21T05:14:58;8.93;;;4.97;;
8632;SDS011;4354;49.832;10.746;2022-09-21T05:17:25;50.10;;;6.67;;
8632;SDS011;4354;49.832;10.746;2022-09-21T05:19:51;44.40;;;6.80;;
8632;SDS011;4354;49.832;10.746;2022-09-21T05:22:19;52.23;;;6.60;;
8632;SDS011;4354;49.832;10.746;2022-09-21T05:24:46;12.60;;;5.67;;
8632;SDS011;4354;49.832;10.746;2022-09-21T05:27:13;32.67;;;6.63;;
8632;SDS011;4354;49.832;10.746;2022-09-21T05:29:40;56.43;;;7.70;;
8632;SDS011;4354;49.832;10.746;2022-09-21T05:32:23;26.10;;;6.57;;
8632;SDS011;4354;49.832;10.746;2022-09-21T05:40:11;132.53;;;9.40;;
8632;SDS011;4354;49.832;10.746;2022-09-21T05:42:39;106.57;;;8.50;;
8632;SDS011;4354;49.832;10.746;2022-09-21T05:45:06;44.53;;;6.90;;
8632;SDS011;4354;49.832;10.746;2022-09-21T05:47:37;53.33;;;5.93;;
8632;SDS011;4354;49.832;10.746;2022-09-21T05:50:26;31.00;;;6.80;;
8632;SDS011;4354;49.832;10.746;2022-09-21T05:56:15;12.17;;;5.50;;
8632;SDS011;4354;49.832;10.746;2022-09-21T05:59:08;60.30;;;6.10;;
8632;SDS011;4354;49.832;10.746;2022-09-21T06:04:39;24.30;;;5.17;;
8632;SDS011;4354;49.832;10.746;2022-09-21T06:07:06;11.13;;;4.90;;
8632;SDS011;4354;49.832;10.746;2022-09-21T06:09:32;44.10;;;6.47;;
8632;SDS011;4354;49.832;10.746;2022-09-21T06:11:59;33.10;;;5.37;;
8632;SDS011;4354;49.832;10.746;2022-09-21T06:14:26;11.53;;;5.27;;
8632;SDS011;4354;49.832;10.746;2022-09-21T06:16:53;16.07;;;4.77;;
8632;SDS011;4354;49.832;10.746;2022-09-21T06:19:20;4.73;;;4.23;;
8632;SDS011;4354;49.832;10.746;2022-09-21T06:21:47;16.43;;;4.40;;
8632;SDS011;4354;49.832;10.746;2022-09-21T06:24:14;15.90;;;4.83;;
8632;SDS011;4354;49.832;10.746;2022-09-21T06:26:41;13.73;;;3.93;;
8632;SDS011;4354;49.832;10.746;2022-09-21T06:29:08;8.13;;;4.00;;
8632;SDS011;4354;49.832;10.746;2022-09-21T06:31:35;4.63;;;3.83;;
8632;SDS011;4354;49.832;10.746;2022-09-21T06:34:01;5.73;;;4.00;;
8632;SDS011;4354;49.832;10.746;2022-09-21T06:36:28;4.77;;;4.27;;
8632;SDS011;4354;49.832;10.746;2022-09-21T06:38:56;12.87;;;5.00;;
8632;SDS011;4354;49.832;10.746;2022-09-21T06:41:23;3.57;;;3.27;;
8632;SDS011;4354;49.832;10.746;2022-09-21T06:43:52;5.30;;;4.10;;
8632;SDS011;4354;49.832;10.746;2022-09-21T06:46:20;4.43;;;3.97;;
8632;SDS011;4354;49.832;10.746;2022-09-21T06:48:47;5.50;;;3.97;;
8632;SDS011;4354;49.832;10.746;2022-09-21T06:51:14;11.03;;;4.70;;
8632;SDS011;4354;49.832;10.746;2022-09-21T06:53:41;7.13;;;5.00;;
8632;SDS011;4354;49.832;10.746;2022-09-21T06:56:08;5.93;;;4.60;;
8632;SDS011;4354;49.832;10.746;2022-09-21T06:58:35;6.47;;;4.30;;
8632;SDS011;4354;49.832;10.746;2022-09-21T07:01:06;8.80;;;4.10;;
8632;SDS011;4354;49.832;10.746;2022-09-21T07:03:35;8.80;;;4.03;;
8632;SDS011;4354;49.832;10.746;2022-09-21T07:06:03;20.73;;;4.90;;
8632;SDS011;4354;49.832;10.746;2022-09-21T07:08:30;7.93;;;4.37;;
8632;SDS011;4354;49.832;10.746;2022-09-21T07:11:17;39.77;;;4.60;;
8632;SDS011;4354;49.832;10.746;2022-09-21T07:13:45;16.13;;;4.67;;
8632;SDS011;4354;49.832;10.746;2022-09-21T07:16:11;5.63;;;3.93;;
8632;SDS011;4354;49.832;10.746;2022-09-21T07:18:39;33.73;;;5.00;;
8632;SDS011;4354;49.832;10.746;2022-09-21T07:21:09;11.40;;;4.00;;
8632;SDS011;4354;49.832;10.746;2022-09-21T07:23:37;6.27;;;3.87;;
8632;SDS011;4354;49.832;10.746;2022-09-21T07:26:08;16.40;;;5.27;;
8632;SDS011;4354;49.832;10.746;2022-09-21T07:28:37;23.70;;;4.23;;
8632;SDS011;4354;49.832;10.746;2022-09-21T07:31:08;4.60;;;4.13;;
8632;SDS011;4354;49.832;10.746;2022-09-21T07:33:39;4.80;;;4.30;;
8632;SDS011;4354;49.832;10.746;2022-09-21T07:36:07;4.90;;;4.40;;
8632;SDS011;4354;49.832;10.746;2022-09-21T07:38:39;23.93;;;4.80;;
8632;SDS011;4354;49.832;10.746;2022-09-21T07:41:08;15.73;;;4.97;;
8632;SDS011;4354;49.832;10.746;2022-09-21T07:43:35;41.30;;;6.37;;
8632;SDS011;4354;49.832;10.746;2022-09-21T07:46:06;5.07;;;4.57;;
8632;SDS011;4354;49.832;10.746;2022-09-21T07:48:35;7.50;;;4.97;;
8632;SDS011;4354;49.832;10.746;2022-09-21T07:51:03;12.43;;;5.53;;
8632;SDS011;4354;49.832;10.746;2022-09-21T07:53:35;7.23;;;5.60;;
8632;SDS011;4354;49.832;10.746;2022-09-21T07:56:04;16.67;;;5.80;;
8632;SDS011;4354;49.832;10.746;2022-09-21T07:58:33;7.93;;;5.70;;
8632;SDS011;4354;49.832;10.746;2022-09-21T08:01:19;11.33;;;5.77;;
8632;SDS011;4354;49.832;10.746;2022-09-21T08:03:47;17.30;;;5.30;;
8632;SDS011;4354;49.832;10.746;2022-09-21T08:06:19;9.63;;;6.27;;
8632;SDS011;4354;49.832;10.746;2022-09-21T08:08:47;17.17;;;5.60;;
8632;SDS011;4354;49.832;10.746;2022-09-21T08:11:22;8.77;;;5.67;;
8632;SDS011;4354;49.832;10.746;2022-09-21T08:13:53;11.87;;;6.13;;
8632;SDS011;4354;49.832;10.746;2022-09-21T08:16:21;10.63;;;5.30;;
8632;SDS011;4354;49.832;10.746;2022-09-21T08:18:48;5.97;;;5.30;;
8632;SDS011;4354;49.832;10.746;2022-09-21T08:21:16;6.17;;;5.37;;
8632;SDS011;4354;49.832;10.746;2022-09-21T08:23:44;11.10;;;6.50;;
8632;SDS011;4354;49.832;10.746;2022-09-21T08:26:15;10.37;;;6.00;;
8632;SDS011;4354;49.832;10.746;2022-09-21T08:28:47;8.50;;;5.70;;
8632;SDS011;4354;49.832;10.746;2022-09-21T08:31:17;9.03;;;5.90;;
8632;SDS011;4354;49.832;10.746;2022-09-21T08:33:46;8.77;;;5.97;;
8632;SDS011;4354;49.832;10.746;2022-09-21T08:36:15;9.47;;;6.30;;
8632;SDS011;4354;49.832;10.746;2022-09-21T08:38:43;8.13;;;5.90;;
8632;SDS011;4354;49.832;10.746;2022-09-21T08:41:21;8.03;;;5.80;;
8632;SDS011;4354;49.832;10.746;2022-09-21T08:43:57;6.57;;;5.97;;
8632;SDS011;4354;49.832;10.746;2022-09-21T08:46:30;7.57;;;6.13;;
8632;SDS011;4354;49.832;10.746;2022-09-21T08:49:03;7.90;;;6.13;;
8632;SDS011;4354;49.832;10.746;2022-09-21T08:51:36;7.73;;;5.80;;
8632;SDS011;4354;49.832;10.746;2022-09-21T08:54:15;7.23;;;6.20;;
8632;SDS011;4354;49.832;10.746;2022-09-21T08:56:48;9.20;;;6.60;;
8632;SDS011;4354;49.832;10.746;2022-09-21T08:59:32;7.87;;;5.17;;
8632;SDS011;4354;49.832;10.746;2022-09-21T09:02:06;7.53;;;5.90;;
8632;SDS011;4354;49.832;10.746;2022-09-21T09:10:20;5.23;;;4.80;;
8632;SDS011;4354;49.832;10.746;2022-09-21T09:21:10;7.03;;;5.37;;
8632;SDS011;4354;49.832;10.746;2022-09-21T09:26:49;5.93;;;5.43;;
8632;SDS011;4354;49.832;10.746;2022-09-21T09:31:54;4.87;;;4.47;;
8632;SDS011;4354;49.832;10.746;2022-09-21T09:34:33;7.20;;;5.50;;
8632;SDS011;4354;49.832;10.746;2022-09-21T09:37:11;4.93;;;4.27;;
8632;SDS011;4354;49.832;10.746;2022-09-21T09:39:40;5.40;;;4.90;;
8632;SDS011;4354;49.832;10.746;2022-09-21T09:48:45;4.77;;;4.30;;
8632;SDS011;4354;49.832;10.746;2022-09-21T09:51:24;4.55;;;4.22;;
8632;SDS011;4354;49.832;10.746;2022-09-21T09:53:52;4.47;;;4.18;;
8632;SDS011;4354;49.832;10.746;2022-09-21T09:56:24;4.50;;;3.83;;
8632;SDS011;4354;49.832;10.746;2022-09-21T09:58:53;3.80;;;3.50;;
8632;SDS011;4354;49.832;10.746;2022-09-21T10:04:05;3.55;;;2.70;;
8632;SDS011;4354;49.832;10.746;2022-09-21T10:06:37;3.65;;;3.33;;
8632;SDS011;4354;49.832;10.746;2022-09-21T10:11:52;3.33;;;2.90;;
8632;SDS011;4354;49.832;10.746;2022-09-21T10:14:26;4.40;;;4.00;;
8632;SDS011;4354;49.832;10.746;2022-09-21T10:16:56;3.13;;;2.92;;
8632;SDS011;4354;49.832;10.746;2022-09-21T10:19:30;4.38;;;3.17;;
8632;SDS011;4354;49.832;10.746;2022-09-21T10:21:57;2.80;;;2.47;;
8632;SDS011;4354;49.832;10.746;2022-09-21T10:24:30;2.90;;;2.70;;
8632;SDS011;4354;49.832;10.746;2022-09-21T10:27:03;2.83;;;2.60;;
8632;SDS011;4354;49.832;10.746;2022-09-21T10:29:39;3.42;;;3.13;;
8632;SDS011;4354;49.832;10.746;2022-09-21T10:37:36;3.50;;;3.30;;
8632;SDS011;4354;49.832;10.746;2022-09-21T10:42:47;2.35;;;2.15;;
8632;SDS011;4354;49.832;10.746;2022-09-21T10:45:16;2.33;;;2.22;;
8632;SDS011;4354;49.832;10.746;2022-09-21T10:48:13;2.30;;;2.10;;
8632;SDS011;4354;49.832;10.746;2022-09-21T10:50:44;2.22;;;2.00;;
8632;SDS011;4354;49.832;10.746;2022-09-21T10:56:04;2.42;;;2.22;;
8632;SDS011;4354;49.832;10.746;2022-09-21T11:01:45;2.47;;;2.28;;
8632;SDS011;4354;49.832;10.746;2022-09-21T11:07:20;2.58;;;2.33;;
8632;SDS011;4354;49.832;10.746;2022-09-21T11:15:46;2.47;;;2.00;;
8632;SDS011;4354;49.832;10.746;2022-09-21T11:18:17;2.35;;;2.15;;
8632;SDS011;4354;49.832;10.746;2022-09-21T11:20:54;2.65;;;1.90;;
8632;SDS011;4354;49.832;10.746;2022-09-21T11:26:09;2.75;;;2.17;;
8632;SDS011;4354;49.832;10.746;2022-09-21T11:45:09;1.85;;;1.48;;
8632;SDS011;4354;49.832;10.746;2022-09-21T11:53:27;0.95;;;0.90;;
8632;SDS011;4354;49.832;10.746;2022-09-21T11:59:10;1.98;;;1.30;;
8632;SDS011;4354;49.832;10.746;2022-09-21T12:14:47;1.15;;;1.05;;
8632;SDS011;4354;49.832;10.746;2022-09-21T12:17:47;2.17;;;1.17;;
8632;SDS011;4354;49.832;10.746;2022-09-21T12:23:25;1.55;;;1.15;;
8632;SDS011;4354;49.832;10.746;2022-09-21T12:26:05;1.05;;;0.85;;
8632;SDS011;4354;49.832;10.746;2022-09-21T12:28:40;3.10;;;1.15;;
8632;SDS011;4354;49.832;10.746;2022-09-21T12:31:14;1.00;;;0.95;;
8632;SDS011;4354;49.832;10.746;2022-09-21T12:33:50;1.13;;;1.10;;
8632;SDS011;4354;49.832;10.746;2022-09-21T12:39:06;1.42;;;1.10;;
8632;SDS011;4354;49.832;10.746;2022-09-21T12:42:32;1.02;;;0.93;;
8632;SDS011;4354;49.832;10.746;2022-09-21T12:44:52;2.08;;;1.00;;
8632;SDS011;4354;49.832;10.746;2022-09-21T12:47:32;1.70;;;1.05;;
8632;SDS011;4354;49.832;10.746;2022-09-21T12:50:18;0.85;;;0.82;;
8632;SDS011;4354;49.832;10.746;2022-09-21T12:53:00;1.13;;;0.80;;
8632;SDS011;4354;49.832;10.746;2022-09-21T13:09:41;2.25;;;0.90;;
8632;SDS011;4354;49.832;10.746;2022-09-21T13:12:13;0.80;;;0.80;;
8632;SDS011;4354;49.832;10.746;2022-09-21T13:14:47;1.42;;;0.82;;
8632;SDS011;4354;49.832;10.746;2022-09-21T13:17:27;2.22;;;1.00;;
8632;SDS011;4354;49.832;10.746;2022-09-21T13:20:00;1.63;;;1.00;;
8632;SDS011;4354;49.832;10.746;2022-09-21T13:22:29;1.20;;;1.00;;
8632;SDS011;4354;49.832;10.746;2022-09-21T13:30:35;2.45;;;0.95;;
8632;SDS011;4354;49.832;10.746;2022-09-21T13:35:53;1.25;;;0.90;;
8632;SDS011;4354;49.832;10.746;2022-09-21T13:54:53;1.40;;;0.90;;
8632;SDS011;4354;49.832;10.746;2022-09-21T13:57:22;0.90;;;0.73;;
8632;SDS011;4354;49.832;10.746;2022-09-21T14:00:22;1.33;;;0.80;;
8632;SDS011;4354;49.832;10.746;2022-09-21T14:02:57;0.98;;;0.88;;
8632;SDS011;4354;49.832;10.746;2022-09-21T14:05:40;3.30;;;1.05;;
8632;SDS011;4354;49.832;10.746;2022-09-21T14:10:40;4.22;;;1.00;;
8632;SDS011;4354;49.832;10.746;2022-09-21T14:18:54;1.90;;;0.90;;
8632;SDS011;4354;49.832;10.746;2022-09-21T14:21:21;1.55;;;1.20;;
8632;SDS011;4354;49.832;10.746;2022-09-21T14:29:52;1.35;;;0.82;;
8632;SDS011;4354;49.832;10.746;2022-09-21T14:32:25;1.67;;;1.00;;
8632;SDS011;4354;49.832;10.746;2022-09-21T14:34:56;1.48;;;1.00;;
8632;SDS011;4354;49.832;10.746;2022-09-21T14:37:31;1.92;;;1.02;;
8632;SDS011;4354;49.832;10.746;2022-09-21T14:40:03;1.13;;;1.02;;
8632;SDS011;4354;49.832;10.746;2022-09-21T14:42:52;1.52;;;1.33;;
8632;SDS011;4354;49.832;10.746;2022-09-21T14:46:23;3.67;;;1.02;;
8632;SDS011;4354;49.832;10.746;2022-09-21T15:02:39;2.00;;;1.25;;
8632;SDS011;4354;49.832;10.746;2022-09-21T15:08:16;1.48;;;1.00;;
8632;SDS011;4354;49.832;10.746;2022-09-21T15:11:30;1.88;;;1.13;;
8632;SDS011;4354;49.832;10.746;2022-09-21T15:14:19;1.27;;;1.02;;
8632;SDS011;4354;49.832;10.746;2022-09-21T15:16:53;1.85;;;1.55;;
8632;SDS011;4354;49.832;10.746;2022-09-21T15:19:23;1.83;;;1.10;;
8632;SDS011;4354;49.832;10.746;2022-09-21T15:21:53;1.02;;;0.93;;
8632;SDS011;4354;49.832;10.746;2022-09-21T15:24:30;1.52;;;1.20;;
8632;SDS011;4354;49.832;10.746;2022-09-21T15:29:45;1.10;;;1.00;;
8632;SDS011;4354;49.832;10.746;2022-09-21T15:34:56;2.97;;;1.55;;
8632;SDS011;4354;49.832;10.746;2022-09-21T15:37:26;3.85;;;2.45;;
8632;SDS011;4354;49.832;10.746;2022-09-21T15:39:58;1.90;;;1.60;;
8632;SDS011;4354;49.832;10.746;2022-09-21T15:42:29;1.45;;;1.10;;
8632;SDS011;4354;49.832;10.746;2022-09-21T15:45:12;1.00;;;1.00;;
8632;SDS011;4354;49.832;10.746;2022-09-21T15:47:41;1.30;;;1.20;;
8632;SDS011;4354;49.832;10.746;2022-09-21T15:50:11;1.63;;;1.00;;
8632;SDS011;4354;49.832;10.746;2022-09-21T15:52:44;0.93;;;0.85;;
8632;SDS011;4354;49.832;10.746;2022-09-21T15:55:22;1.92;;;0.90;;
8632;SDS011;4354;49.832;10.746;2022-09-21T15:57:53;1.10;;;0.90;;
8632;SDS011;4354;49.832;10.746;2022-09-21T16:00:25;3.70;;;0.95;;
8632;SDS011;4354;49.832;10.746;2022-09-21T16:05:41;1.95;;;0.93;;
8632;SDS011;4354;49.832;10.746;2022-09-21T16:08:30;1.17;;;1.08;;
8632;SDS011;4354;49.832;10.746;2022-09-21T16:13:47;0.93;;;0.73;;
8632;SDS011;4354;49.832;10.746;2022-09-21T16:20:21;1.50;;;0.98;;
8632;SDS011;4354;49.832;10.746;2022-09-21T16:22:25;1.90;;;0.98;;
8632;SDS011;4354;49.832;10.746;2022-09-21T16:27:50;1.00;;;0.90;;
8632;SDS011;4354;49.832;10.746;2022-09-21T16:30:55;1.75;;;0.80;;
8632;SDS011;4354;49.832;10.746;2022-09-21T16:36:03;1.07;;;0.73;;
8632;SDS011;4354;49.832;10.746;2022-09-21T16:38:51;1.90;;;0.93;;
8632;SDS011;4354;49.832;10.746;2022-09-21T16:41:22;1.13;;;1.03;;
8632;SDS011;4354;49.832;10.746;2022-09-21T16:43:57;1.00;;;0.90;;
8632;SDS011;4354;49.832;10.746;2022-09-21T16:46:25;1.33;;;0.80;;
8632;SDS011;4354;49.832;10.746;2022-09-21T16:48:53;1.20;;;0.90;;
8632;SDS011;4354;49.832;10.746;2022-09-21T16:51:24;0.73;;;0.70;;
8632;SDS011;4354;49.832;10.746;2022-09-21T16:53:52;1.43;;;1.00;;
8632;SDS011;4354;49.832;10.746;2022-09-21T16:56:21;0.93;;;0.70;;
8632;SDS011;4354;49.832;10.746;2022-09-21T16:58:48;0.90;;;0.70;;
8632;SDS011;4354;49.832;10.746;2022-09-21T17:01:15;1.10;;;0.70;;
8632;SDS011;4354;49.832;10.746;2022-09-21T17:03:46;2.17;;;0.70;;
8632;SDS011;4354;49.832;10.746;2022-09-21T17:06:14;1.73;;;1.00;;
8632;SDS011;4354;49.832;10.746;2022-09-21T17:08:46;0.77;;;0.70;;
8632;SDS011;4354;49.832;10.746;2022-09-21T17:11:17;2.60;;;1.00;;
8632;SDS011;4354;49.832;10.746;2022-09-21T17:13:50;1.97;;;0.80;;
8632;SDS011;4354;49.832;10.746;2022-09-21T17:16:23;1.67;;;0.90;;
8632;SDS011;4354;49.832;10.746;2022-09-21T17:18:50;1.90;;;0.80;;
8632;SDS011;4354;49.832;10.746;2022-09-21T17:21:16;2.50;;;1.10;;
8632;SDS011;4354;49.832;10.746;2022-09-21T17:23:44;6.33;;;5.40;;
8632;SDS011;4354;49.832;10.746;2022-09-21T17:26:15;14.80;;;11.47;;
8632;SDS011;4354;49.832;10.746;2022-09-21T17:28:46;18.10;;;13.17;;
8632;SDS011;4354;49.832;10.746;2022-09-21T17:31:13;14.87;;;10.10;;
8632;SDS011;4354;49.832;10.746;2022-09-21T17:33:46;7.77;;;5.70;;
8632;SDS011;4354;49.832;10.746;2022-09-21T17:36:16;4.63;;;3.80;;
8632;SDS011;4354;49.832;10.746;2022-09-21T17:38:46;4.40;;;4.00;;
8632;SDS011;4354;49.832;10.746;2022-09-21T17:41:16;5.23;;;3.90;;
8632;SDS011;4354;49.832;10.746;2022-09-21T17:44:00;4.53;;;4.00;;
8632;SDS011;4354;49.832;10.746;2022-09-21T17:49:28;4.27;;;3.87;;
8632;SDS011;4354;49.832;10.746;2022-09-21T17:51:55;5.77;;;3.27;;
8632;SDS011;4354;49.832;10.746;2022-09-21T17:54:41;3.10;;;2.80;;
8632;SDS011;4354;49.832;10.746;2022-09-21T17:57:13;4.23;;;2.53;;
8632;SDS011;4354;49.832;10.746;2022-09-21T17:59:58;4.57;;;2.53;;
8632;SDS011;4354;49.832;10.746;2022-09-21T18:02:36;3.10;;;2.00;;
8632;SDS011;4354;49.832;10.746;2022-09-21T18:05:08;4.87;;;1.57;;
8632;SDS011;4354;49.832;10.746;2022-09-21T18:07:44;2.83;;;1.70;;
8632;SDS011;4354;49.832;10.746;2022-09-21T18:10:11;3.30;;;1.60;;
8632;SDS011;4354;49.832;10.746;2022-09-21T18:21:04;3.83;;;2.17;;
8632;SDS011;4354;49.832;10.746;2022-09-21T18:26:33;3.63;;;3.00;;
8632;SDS011;4354;49.832;10.746;2022-09-21T18:29:00;4.50;;;4.10;;
8632;SDS011;4354;49.832;10.746;2022-09-21T18:45:43;3.87;;;2.93;;
8632;SDS011;4354;49.832;10.746;2022-09-21T18:51:20;4.87;;;3.83;;
8632;SDS011;4354;49.832;10.746;2022-09-21T18:53:57;5.57;;;3.60;;
8632;SDS011;4354;49.832;10.746;2022-09-21T18:56:27;4.87;;;3.90;;
8632;SDS011;4354;49.832;10.746;2022-09-21T18:58:59;5.50;;;4.27;;
8632;SDS011;4354;49.832;10.746;2022-09-21T19:01:27;6.17;;;4.53;;
8632;SDS011;4354;49.832;10.746;2022-09-21T19:03:58;8.07;;;4.80;;
8632;SDS011;4354;49.832;10.746;2022-09-21T19:06:40;5.30;;;4.30;;
8632;SDS011;4354;49.832;10.746;2022-09-21T19:23:34;9.90;;;5.90;;
8632;SDS011;4354;49.832;10.746;2022-09-21T19:26:46;17.33;;;9.37;;
8632;SDS011;4354;49.832;10.746;2022-09-21T19:31:45;9.70;;;5.07;;
8632;SDS011;4354;49.832;10.746;2022-09-21T19:34:13;5.13;;;4.07;;
8632;SDS011;4354;49.832;10.746;2022-09-21T19:36:41;3.97;;;3.30;;
8632;SDS011;4354;49.832;10.746;2022-09-21T19:39:09;4.43;;;4.03;;
8632;SDS011;4354;49.832;10.746;2022-09-21T19:49:48;4.47;;;3.87;;
8632;SDS011;4354;49.832;10.746;2022-09-21T19:52:37;4.00;;;3.63;;
8632;SDS011;4354;49.832;10.746;2022-09-21T19:55:15;6.43;;;3.80;;
8632;SDS011;4354;49.832;10.746;2022-09-21T19:58:03;5.83;;;3.70;;
8632;SDS011;4354;49.832;10.746;2022-09-21T20:00:50;5.53;;;3.50;;
8632;SDS011;4354;49.832;10.746;2022-09-21T20:03:26;3.87;;;3.30;;
8632;SDS011;4354;49.832;10.746;2022-09-21T20:06:03;4.53;;;3.10;;
8632;SDS011;4354;49.832;10.746;2022-09-21T20:09:11;4.13;;;3.20;;
8632;SDS011;4354;49.832;10.746;2022-09-21T20:14:40;5.60;;;3.60;;
8632;SDS011;4354;49.832;10.746;2022-09-21T20:17:34;3.10;;;2.80;;
8632;SDS011;4354;49.832;10.746;2022-09-21T20:22:40;3.57;;;3.10;;
8632;SDS011;4354;49.832;10.746;2022-09-21T20:25:10;4.00;;;3.00;;
8632;SDS011;4354;49.832;10.746;2022-09-21T20:30:10;3.30;;;2.63;;
8632;SDS011;4354;49.832;10.746;2022-09-21T20:32:40;3.07;;;2.70;;
8632;SDS011;4354;49.832;10.746;2022-09-21T20:35:31;4.37;;;2.80;;